METAR Data
IDs: Format: Raw Decoded Include TAF

Data at: 1344 UTC 14 Dec 2019

PAAQ 141253Z AUTO 35005KT 10SM SCT050 BKN070 01/M07 A2961 RMK AO2 SLP032 T00111067 TSNO
PAAQ 141153Z AUTO 35009KT 10SM CLR 01/M08 A2960 RMK AO2 SLP026 T00061083 10017 21011 51009 TSNO
PAAQ 141053Z AUTO 35010KT 10SM CLR 01/M08 A2959 RMK AO2 SLP022 T00111083 TSNO
PAAQ 140953Z AUTO 35009KT 10SM FEW075 SCT090 BKN120 01/M09 A2959 RMK AO2 SLP025 T00111089 TSNO
PAAQ 140853Z AUTO 03009KT 10SM BKN110 01/M09 A2957 RMK AO2 SLP017 T00111094 400281022 53001 TSNO
PAAQ 140753Z AUTO 02012KT 10SM CLR 00/M10 A2957 RMK AO2 SLP016 T00001100 TSNO
PAAQ 140653Z AUTO 02008KT 10SM OVC100 01/M10 A2957 RMK AO2 SLP015 T00061100 TSNO
PAAQ 140553Z AUTO 36010KT 10SM CLR 00/M10 A2957 RMK AO2 SLP016 T00001100 10006 21022 58011 TSNO
PAAQ 140453Z AUTO 35011KT 4SM HZ CLR M01/M09 A2958 RMK AO2 SLP020 T10111094 TSNO
PAAQ 140353Z AUTO 34015KT 10SM CLR M02/M09 A2959 RMK AO2 SLP025 T10221094 TSNO
PAAQ 140253Z AUTO 34016KT 10SM FEW100 M02/M09 A2960 RMK AO2 SLP028 T10221094 58003 TSNO
PAAQ 140153Z AUTO 34014KT 10SM FEW110 M02/M09 A2960 RMK AO2 SLP027 T10171089 TSNO
PAAQ 140053Z 35014KT 10SM SCT120 M01/M09 A2961 RMK AO2 SLP030 T10111089
PAAQ 132353Z 35014G19KT 10SM CLR M01/M09 A2961 RMK AO2 SLP030 T10111089 10011 21017 51023
PAAQ 132253Z 35016KT 10SM CLR M02/M09 A2959 RMK AO2 SLP023 T10171089
PAAQ 132153Z 36014G20KT 10SM FEW075 M01/M08 A2957 RMK AO2 SLP016 T10111083
PAAQ 132053Z 35014G19KT 10SM SCT080 M01/M08 A2954 RMK AO2 SLP007 T10061083 53037
PAAQ 131953Z 34015G22KT 10SM FEW080 M01/M08 A2950 RMK AO2 SLP993 T10061078
PAAQ 131853Z 35018G27KT 9SM CLR 00/M07 A2946 RMK AO2 PK WND 35027/1849 SLP980 T00001072
PAAQ 131753Z 34015G24KT 10SM FEW075 00/M07 A2943 RMK AO2 SLP969 60000 T00001072 10017 20000 53021
PAAQ 131553Z AUTO 35011KT 10SM FEW070 01/M07 A2938 RMK AO2 SLP951 T00061067 TSNO
PAAQ 131453Z AUTO 34008KT 10SM OVC075 01/M06 A2937 RMK AO2 SLP948 60000 T00061061 53031 TSNO
PAAQ 131353Z AUTO 34006KT 10SM BKN075 OVC090 01/M07 A2934 RMK AO2 UPB16E25 SLP938 P0000 T00111067 TSNO
PAAQ 131253Z AUTO 35010KT 10SM OVC095 01/M07 A2930 RMK AO2 SLP925 T00061067 TSNO
PAAQ 131153Z AUTO 34011KT 10SM SCT090 SCT120 01/M07 A2928 RMK AO2 SLP917 T00061067 10033 20006 53008 TSNO
PAAQ 131053Z AUTO 36016KT 10SM CLR 01/M07 A2926 RMK AO2 SLP912 T00111067 TSNO
PAAQ 130953Z AUTO 01012KT 10SM FEW055 SCT070 BKN080 02/M06 A2926 RMK AO2 SLP912 T00221061 TSNO
PAAQ 130853Z AUTO 36012KT 10SM BKN085 OVC100 03/M05 A2925 RMK AO2 SLP909 T00281050 400391033 53017 TSNO
PAAQ 130753Z AUTO 35011KT 10SM CLR 02/M06 A2921 RMK AO2 SLP895 T00171061 TSNO
PAAQ 130653Z AUTO 35013KT 10SM CLR 02/M06 A2920 RMK AO2 SLP893 T00221061 TSNO
PAAQ 130553Z AUTO 35010KT 10SM CLR 03/M06 A2920 RMK AO2 SLP891 T00331056 10039 20028 58002 TSNO
PAAQ 130453Z AUTO 35010KT 10SM SCT120 03/M06 A2920 RMK AO2 SLP893 T00281056 TSNO
PAAQ 130353Z AUTO 36012KT 10SM BKN120 03/M06 A2920 RMK AO2 SLP892 T00331056 TSNO
PAAQ 130253Z AUTO 35010KT 10SM OVC095 03/M06 A2920 RMK AO2 SLP893 T00331056 56003 TSNO
PAAQ 130153Z AUTO 34012KT 10SM SCT090 OVC110 03/M06 A2920 RMK AO2 SLP893 T00331061 TSNO